Houwa Maru — JL6394 — position and weather

sailwx.info

Track history (hours):
 
Tides and Currents Weather Stations Pressure Air Temp Water Temp Dewpoint Dewpoint Depression Visibility Wind Speed Wind Dir Waves Ship Positions

Houwa Maru

Last reported at 2016-May-02 03:32 UTC. Time now 2016-May-02 03:36 UTC.
Position N 35°30' E 139°46'.

Length 76 m.

Type: Ship. MMSI: 431500378.

Date/timePositionNaut miles runAvg speedWind from/ knotsBaromVisibWave heightAir tempDewpointWater temp
2016-May-02 03:32N 35°30' E 139°46'0 0.0
2016-May-02 02:32N 35°30' E 139°46'0 0.0
2016-May-02 01:32N 35°30' E 139°46'0 0.0
2016-May-02 00:29N 35°30' E 139°46'0 0.0
2016-May-01 23:29N 35°30' E 139°46'2 2.3
2016-May-01 22:30N 35°29' E 139°48'0 0.0
2016-May-01 21:33N 35°29' E 139°48'0 0.0
2016-May-01 20:30N 35°29' E 139°48'0 0.0
2016-May-01 19:27N 35°29' E 139°48'0 0.0
2016-May-01 18:30N 35°29' E 139°48'0 0.0
2016-May-01 17:33N 35°29' E 139°48'0 0.0
2016-May-01 16:33N 35°29' E 139°48'0 0.0
2016-May-01 15:33N 35°29' E 139°48'0 0.0
2016-May-01 14:33N 35°29' E 139°48'0 0.0
2016-May-01 13:33N 35°29' E 139°48'0 0.0
2016-May-01 12:33N 35°29' E 139°48'0 0.1
2016-May-01 11:33N 35°29' E 139°48'0 0.0
2016-May-01 10:33N 35°29' E 139°48'0 0.0
2016-May-01 09:33N 35°29' E 139°48'0 0.0
2016-May-01 08:33N 35°29' E 139°48'0 0.0
2016-May-01 07:33N 35°29' E 139°48'0 0.0
2016-May-01 06:33N 35°29' E 139°48'0 0.0
2016-May-01 05:33N 35°29' E 139°48'0 0.0
2016-May-01 04:33N 35°29' E 139°48'0 0.0
2016-May-01 03:33N 35°29' E 139°48'0 0.0
2016-May-01 02:33N 35°29' E 139°48'0 0.0
2016-May-01 01:33N 35°29' E 139°48'0 0.0
2016-May-01 00:25N 35°29' E 139°48'7 8.6
2016-Apr-30 23:33N 35°33' E 139°55'8 7.3
2016-Apr-30 22:27N 35°41' E 139°59'0 0.0
2016-Apr-30 21:33N 35°41' E 139°59'0 0.0
2016-Apr-30 20:33N 35°41' E 139°59'0 0.0
2016-Apr-30 19:27N 35°41' E 139°59'0 0.0
2016-Apr-30 18:33N 35°41' E 139°59'0 0.0
2016-Apr-30 17:21N 35°41' E 139°59'0 0.0
2016-Apr-30 16:27N 35°41' E 139°59'0 0.0
2016-Apr-30 15:27N 35°41' E 139°59'0 0.0
2016-Apr-30 14:33N 35°41' E 139°59'0 0.0
2016-Apr-30 13:15N 35°41' E 139°59'0 0.0
2016-Apr-30 12:09N 35°41' E 139°59'0 0.0
2016-Apr-30 11:33N 35°41' E 139°59'0 0.0
2016-Apr-30 10:33N 35°41' E 139°59'0 0.0
2016-Apr-30 09:27N 35°41' E 139°59'0 0.0
2016-Apr-30 08:33N 35°41' E 139°59'0 0.0
2016-Apr-30 07:27N 35°41' E 139°59'0 0.0
2016-Apr-30 06:27N 35°41' E 139°59'0 0.0
2016-Apr-30 05:33N 35°41' E 139°59'0 0.0
2016-Apr-30 04:33N 35°41' E 139°59'0 0.0
2016-Apr-30 03:15N 35°41' E 139°59'0 0.0
2016-Apr-30 02:33N 35°41' E 139°59'0 0.0
2016-Apr-30 01:33N 35°41' E 139°59'0 0.0
2016-Apr-30 00:27N 35°41' E 139°59'0 0.0
2016-Apr-29 23:33N 35°41' E 139°59'0 0.0
2016-Apr-29 22:33N 35°41' E 139°59'0 0.0
2016-Apr-29 21:21N 35°41' E 139°59'0 0.0
2016-Apr-29 20:27N 35°41' E 139°59'0 0.0
2016-Apr-29 19:33N 35°41' E 139°59'0 0.0
2016-Apr-29 18:33N 35°41' E 139°59'0 0.0
2016-Apr-29 17:33N 35°41' E 139°59'0 0.0
2016-Apr-29 16:21N 35°41' E 139°59'0 0.0
2016-Apr-29 14:21N 35°41' E 139°59'0 0.0
2016-Apr-29 13:21N 35°41' E 139°59'0 0.0
2016-Apr-29 12:15N 35°41' E 139°59'0 0.0
2016-Apr-29 11:27N 35°41' E 139°59'0 0.0
2016-Apr-29 10:27N 35°41' E 139°59'0 0.0
2016-Apr-29 09:15N 35°41' E 139°59'0 0.0
2016-Apr-29 08:33N 35°41' E 139°59'0 0.0
2016-Apr-29 07:33N 35°41' E 139°59'0 0.0
2016-Apr-29 06:21N 35°41' E 139°59'0 0.0
2016-Apr-29 05:27N 35°41' E 139°59'0 0.0
2016-Apr-29 04:33N 35°41' E 139°59'0 0.0
2016-Apr-29 03:33N 35°41' E 139°59'0 0.0
2016-Apr-29 02:27N 35°41' E 139°59'0 0.0
2016-Apr-29 01:21N 35°41' E 139°59'0 0.0
2016-Apr-29 00:33N 35°41' E 139°59'0 0.0
2016-Apr-28 23:27N 35°41' E 139°59'0 0.0
2016-Apr-28 22:33N 35°41' E 139°59'4 4.0
2016-Apr-28 21:28N 35°36' E 139°58'0 0.0
2016-Apr-28 20:31N 35°36' E 139°58'0 0.0
2016-Apr-28 19:28N 35°36' E 139°58'0 0.0
2016-Apr-28 18:22N 35°36' E 139°58'0 0.0
2016-Apr-28 17:19N 35°36' E 139°58'0 0.1
2016-Apr-28 16:22N 35°36' E 139°58'0 0.0
2016-Apr-28 15:22N 35°36' E 139°58'0 0.1
2016-Apr-28 14:28N 35°36' E 139°58'0 0.0
2016-Apr-28 13:28N 35°36' E 139°58'0 0.1
2016-Apr-28 12:31N 35°36' E 139°58'0 0.0
2016-Apr-28 10:31N 35°36' E 139°58'0 0.0
2016-Apr-28 09:28N 35°36' E 139°58'5 5.8
2016-Apr-28 08:33N 35°32' E 139°55'1110.9
2016-Apr-28 07:33N 35°24' E 139°46'10 9.9
2016-Apr-28 06:30N 35°13' E 139°47'  
2016-Apr-25 05:22N 35°16' E 139°45'8 9.8
2016-Apr-25 04:33N 35°23' E 139°40'1 0.5
2016-Apr-25 03:30N 35°22' E 139°39'0 0.0
2016-Apr-25 02:30N 35°22' E 139°39'0 0.0
2016-Apr-25 01:21N 35°22' E 139°39'0 0.0
2016-Apr-25 00:21N 35°22' E 139°39'0 0.0
2016-Apr-24 23:33N 35°22' E 139°39'0 0.0
2016-Apr-24 22:30N 35°22' E 139°39'2 1.9
2016-Apr-24 21:32N 35°23' E 139°41'6 5.6
2016-Apr-24 20:31N 35°29' E 139°39'0 0.0
2016-Apr-24 19:31N 35°29' E 139°39'0 0.0
2016-Apr-24 18:31N 35°29' E 139°39'0 0.0
2016-Apr-24 17:31N 35°29' E 139°39'0 0.0
2016-Apr-24 16:31N 35°29' E 139°39'0 0.0
2016-Apr-24 15:31N 35°29' E 139°39'0 0.0
2016-Apr-24 14:31N 35°29' E 139°39'0 0.0
2016-Apr-24 13:31N 35°29' E 139°39'0 0.0
2016-Apr-24 12:31N 35°29' E 139°39'0 0.0
2016-Apr-24 11:31N 35°29' E 139°39'0 0.0
2016-Apr-24 10:31N 35°29' E 139°39'0 0.0
2016-Apr-24 09:31N 35°29' E 139°39'0 0.0
2016-Apr-24 08:31N 35°29' E 139°39'0 0.0
2016-Apr-24 07:31N 35°29' E 139°39'0 0.0
2016-Apr-24 06:31N 35°29' E 139°39'0 0.0
2016-Apr-24 05:31N 35°29' E 139°39'0 0.0
2016-Apr-24 04:31N 35°29' E 139°39'0 0.0
2016-Apr-24 03:31N 35°29' E 139°39'0 0.0
2016-Apr-24 02:19N 35°29' E 139°39'0 0.0
2016-Apr-24 01:31N 35°29' E 139°39'0 0.0
2016-Apr-24 00:31N 35°29' E 139°39'0 0.0
2016-Apr-23 23:31N 35°29' E 139°39'0 0.0
2016-Apr-23 22:31N 35°29' E 139°39'0 0.0
2016-Apr-23 21:31N 35°29' E 139°39'0 0.0
2016-Apr-23 20:31N 35°29' E 139°39'0 0.0
2016-Apr-23 19:31N 35°29' E 139°39'0 0.0
2016-Apr-23 18:31N 35°29' E 139°39'0 0.0
2016-Apr-23 17:31N 35°29' E 139°39'0 0.0
2016-Apr-23 16:31N 35°29' E 139°39'0 0.0
2016-Apr-23 15:31N 35°29' E 139°39'0 0.0
2016-Apr-23 14:31N 35°29' E 139°39'0 0.0
2016-Apr-23 13:31N 35°29' E 139°39'0 0.0
2016-Apr-23 12:31N 35°29' E 139°39'0 0.0
2016-Apr-23 11:31N 35°29' E 139°39'0 0.0
2016-Apr-23 10:31N 35°29' E 139°39'0 0.0
2016-Apr-23 09:31N 35°29' E 139°39'0 0.0
2016-Apr-23 08:31N 35°29' E 139°39'0 0.0
2016-Apr-23 07:31N 35°29' E 139°39'0 0.0
2016-Apr-23 06:31N 35°29' E 139°39'0 0.0
2016-Apr-23 05:31N 35°29' E 139°39'0 0.0
2016-Apr-23 04:31N 35°29' E 139°39'0 0.0
2016-Apr-23 03:31N 35°29' E 139°39'0 0.0
2016-Apr-23 02:31N 35°29' E 139°39'0 0.0
2016-Apr-23 01:31N 35°29' E 139°39'0 0.0
2016-Apr-23 00:31N 35°29' E 139°39'0 0.0
2016-Apr-22 23:31N 35°29' E 139°39'0 0.0
2016-Apr-22 22:31N 35°29' E 139°39'0 0.0
2016-Apr-22 21:31N 35°29' E 139°39'0 0.0
2016-Apr-22 20:31N 35°29' E 139°39'0 0.0
2016-Apr-22 19:31N 35°29' E 139°39'0 0.0
2016-Apr-22 18:31N 35°29' E 139°39'0 0.0
2016-Apr-22 17:31N 35°29' E 139°39'0 0.0
2016-Apr-22 16:31N 35°29' E 139°39'0 0.0
2016-Apr-22 15:31N 35°29' E 139°39'0 0.0
2016-Apr-22 14:31N 35°29' E 139°39'0 0.0
2016-Apr-22 13:31N 35°29' E 139°39'0 0.0
2016-Apr-22 12:31N 35°29' E 139°39'0 0.0
2016-Apr-22 11:31N 35°29' E 139°39'0 0.0
2016-Apr-22 10:31N 35°29' E 139°39'0 0.0
2016-Apr-22 09:31N 35°29' E 139°39'0 0.0
2016-Apr-22 08:31N 35°29' E 139°39'0 0.0
2016-Apr-22 07:31N 35°29' E 139°39'0 0.0
2016-Apr-22 06:31N 35°29' E 139°39'0 0.0
2016-Apr-22 05:31N 35°29' E 139°39'0 0.0
2016-Apr-22 04:31N 35°29' E 139°39'  
Track history (hours):
 
Tides and Currents Weather Stations Pressure Air Temp Water Temp Dewpoint Dewpoint Depression Visibility Wind Speed Wind Dir Waves Ship Positions

Houwa Maru

Last reported at 2016-May-02 03:32 UTC. Time now 2016-May-02 03:36 UTC.
Position N 35°30' E 139°46'.

Length 76 m.

Type: Ship. MMSI: 431500378.

Date/timePositionNaut miles runAvg speedWind from/ knotsBaromVisibWave heightAir tempDewpointWater temp
2016-May-02 03:32N 35°30' E 139°46'0 0.0
2016-May-02 02:32N 35°30' E 139°46'0 0.0
2016-May-02 01:32N 35°30' E 139°46'0 0.0
2016-May-02 00:29N 35°30' E 139°46'0 0.0
2016-May-01 23:29N 35°30' E 139°46'2 2.3
2016-May-01 22:30N 35°29' E 139°48'0 0.0
2016-May-01 21:33N 35°29' E 139°48'0 0.0
2016-May-01 20:30N 35°29' E 139°48'0 0.0
2016-May-01 19:27N 35°29' E 139°48'0 0.0
2016-May-01 18:30N 35°29' E 139°48'0 0.0
2016-May-01 17:33N 35°29' E 139°48'0 0.0
2016-May-01 16:33N 35°29' E 139°48'0 0.0
2016-May-01 15:33N 35°29' E 139°48'0 0.0
2016-May-01 14:33N 35°29' E 139°48'0 0.0
2016-May-01 13:33N 35°29' E 139°48'0 0.0
2016-May-01 12:33N 35°29' E 139°48'0 0.1
2016-May-01 11:33N 35°29' E 139°48'0 0.0
2016-May-01 10:33N 35°29' E 139°48'0 0.0
2016-May-01 09:33N 35°29' E 139°48'0 0.0
2016-May-01 08:33N 35°29' E 139°48'0 0.0
2016-May-01 07:33N 35°29' E 139°48'0 0.0
2016-May-01 06:33N 35°29' E 139°48'0 0.0
2016-May-01 05:33N 35°29' E 139°48'0 0.0
2016-May-01 04:33N 35°29' E 139°48'0 0.0
2016-May-01 03:33N 35°29' E 139°48'0 0.0
2016-May-01 02:33N 35°29' E 139°48'0 0.0
2016-May-01 01:33N 35°29' E 139°48'0 0.0
2016-May-01 00:25N 35°29' E 139°48'7 8.6
2016-Apr-30 23:33N 35°33' E 139°55'8 7.3
2016-Apr-30 22:27N 35°41' E 139°59'0 0.0
2016-Apr-30 21:33N 35°41' E 139°59'0 0.0
2016-Apr-30 20:33N 35°41' E 139°59'0 0.0
2016-Apr-30 19:27N 35°41' E 139°59'0 0.0
2016-Apr-30 18:33N 35°41' E 139°59'0 0.0
2016-Apr-30 17:21N 35°41' E 139°59'0 0.0
2016-Apr-30 16:27N 35°41' E 139°59'0 0.0
2016-Apr-30 15:27N 35°41' E 139°59'0 0.0
2016-Apr-30 14:33N 35°41' E 139°59'0 0.0
2016-Apr-30 13:15N 35°41' E 139°59'0 0.0
2016-Apr-30 12:09N 35°41' E 139°59'0 0.0
2016-Apr-30 11:33N 35°41' E 139°59'0 0.0
2016-Apr-30 10:33N 35°41' E 139°59'0 0.0
2016-Apr-30 09:27N 35°41' E 139°59'0 0.0
2016-Apr-30 08:33N 35°41' E 139°59'0 0.0
2016-Apr-30 07:27N 35°41' E 139°59'0 0.0
2016-Apr-30 06:27N 35°41' E 139°59'0 0.0
2016-Apr-30 05:33N 35°41' E 139°59'0 0.0
2016-Apr-30 04:33N 35°41' E 139°59'0 0.0
2016-Apr-30 03:15N 35°41' E 139°59'0 0.0
2016-Apr-30 02:33N 35°41' E 139°59'0 0.0
2016-Apr-30 01:33N 35°41' E 139°59'0 0.0
2016-Apr-30 00:27N 35°41' E 139°59'0 0.0
2016-Apr-29 23:33N 35°41' E 139°59'0 0.0
2016-Apr-29 22:33N 35°41' E 139°59'0 0.0
2016-Apr-29 21:21N 35°41' E 139°59'0 0.0
2016-Apr-29 20:27N 35°41' E 139°59'0 0.0
2016-Apr-29 19:33N 35°41' E 139°59'0 0.0
2016-Apr-29 18:33N 35°41' E 139°59'0 0.0
2016-Apr-29 17:33N 35°41' E 139°59'0 0.0
2016-Apr-29 16:21N 35°41' E 139°59'0 0.0
2016-Apr-29 14:21N 35°41' E 139°59'0 0.0
2016-Apr-29 13:21N 35°41' E 139°59'0 0.0
2016-Apr-29 12:15N 35°41' E 139°59'0 0.0
2016-Apr-29 11:27N 35°41' E 139°59'0 0.0
2016-Apr-29 10:27N 35°41' E 139°59'0 0.0
2016-Apr-29 09:15N 35°41' E 139°59'0 0.0
2016-Apr-29 08:33N 35°41' E 139°59'0 0.0
2016-Apr-29 07:33N 35°41' E 139°59'0 0.0
2016-Apr-29 06:21N 35°41' E 139°59'0 0.0
2016-Apr-29 05:27N 35°41' E 139°59'0 0.0
2016-Apr-29 04:33N 35°41' E 139°59'0 0.0
2016-Apr-29 03:33N 35°41' E 139°59'0 0.0
2016-Apr-29 02:27N 35°41' E 139°59'0 0.0
2016-Apr-29 01:21N 35°41' E 139°59'0 0.0
2016-Apr-29 00:33N 35°41' E 139°59'0 0.0
2016-Apr-28 23:27N 35°41' E 139°59'0 0.0
2016-Apr-28 22:33N 35°41' E 139°59'4 4.0
2016-Apr-28 21:28N 35°36' E 139°58'0 0.0
2016-Apr-28 20:31N 35°36' E 139°58'0 0.0
2016-Apr-28 19:28N 35°36' E 139°58'0 0.0
2016-Apr-28 18:22N 35°36' E 139°58'0 0.0
2016-Apr-28 17:19N 35°36' E 139°58'0 0.1
2016-Apr-28 16:22N 35°36' E 139°58'0 0.0
2016-Apr-28 15:22N 35°36' E 139°58'0 0.1
2016-Apr-28 14:28N 35°36' E 139°58'0 0.0
2016-Apr-28 13:28N 35°36' E 139°58'0 0.1
2016-Apr-28 12:31N 35°36' E 139°58'0 0.0
2016-Apr-28 10:31N 35°36' E 139°58'0 0.0
2016-Apr-28 09:28N 35°36' E 139°58'5 5.8
2016-Apr-28 08:33N 35°32' E 139°55'1110.9
2016-Apr-28 07:33N 35°24' E 139°46'10 9.9
2016-Apr-28 06:30N 35°13' E 139°47'  
2016-Apr-25 05:22N 35°16' E 139°45'8 9.8
2016-Apr-25 04:33N 35°23' E 139°40'1 0.5
2016-Apr-25 03:30N 35°22' E 139°39'0 0.0
2016-Apr-25 02:30N 35°22' E 139°39'0 0.0
2016-Apr-25 01:21N 35°22' E 139°39'0 0.0
2016-Apr-25 00:21N 35°22' E 139°39'0 0.0
2016-Apr-24 23:33N 35°22' E 139°39'0 0.0
2016-Apr-24 22:30N 35°22' E 139°39'2 1.9
2016-Apr-24 21:32N 35°23' E 139°41'6 5.6
2016-Apr-24 20:31N 35°29' E 139°39'0 0.0
2016-Apr-24 19:31N 35°29' E 139°39'0 0.0
2016-Apr-24 18:31N 35°29' E 139°39'0 0.0
2016-Apr-24 17:31N 35°29' E 139°39'0 0.0
2016-Apr-24 16:31N 35°29' E 139°39'0 0.0
2016-Apr-24 15:31N 35°29' E 139°39'0 0.0
2016-Apr-24 14:31N 35°29' E 139°39'0 0.0
2016-Apr-24 13:31N 35°29' E 139°39'0 0.0
2016-Apr-24 12:31N 35°29' E 139°39'0 0.0
2016-Apr-24 11:31N 35°29' E 139°39'0 0.0
2016-Apr-24 10:31N 35°29' E 139°39'0 0.0
2016-Apr-24 09:31N 35°29' E 139°39'0 0.0
2016-Apr-24 08:31N 35°29' E 139°39'0 0.0
2016-Apr-24 07:31N 35°29' E 139°39'0 0.0
2016-Apr-24 06:31N 35°29' E 139°39'0 0.0
2016-Apr-24 05:31N 35°29' E 139°39'0 0.0
2016-Apr-24 04:31N 35°29' E 139°39'0 0.0
2016-Apr-24 03:31N 35°29' E 139°39'0 0.0
2016-Apr-24 02:19N 35°29' E 139°39'0 0.0
2016-Apr-24 01:31N 35°29' E 139°39'0 0.0
2016-Apr-24 00:31N 35°29' E 139°39'0 0.0
2016-Apr-23 23:31N 35°29' E 139°39'0 0.0
2016-Apr-23 22:31N 35°29' E 139°39'0 0.0
2016-Apr-23 21:31N 35°29' E 139°39'0 0.0
2016-Apr-23 20:31N 35°29' E 139°39'0 0.0
2016-Apr-23 19:31N 35°29' E 139°39'0 0.0
2016-Apr-23 18:31N 35°29' E 139°39'0 0.0
2016-Apr-23 17:31N 35°29' E 139°39'0 0.0
2016-Apr-23 16:31N 35°29' E 139°39'0 0.0
2016-Apr-23 15:31N 35°29' E 139°39'0 0.0
2016-Apr-23 14:31N 35°29' E 139°39'0 0.0
2016-Apr-23 13:31N 35°29' E 139°39'0 0.0
2016-Apr-23 12:31N 35°29' E 139°39'0 0.0
2016-Apr-23 11:31N 35°29' E 139°39'0 0.0
2016-Apr-23 10:31N 35°29' E 139°39'0 0.0
2016-Apr-23 09:31N 35°29' E 139°39'0 0.0
2016-Apr-23 08:31N 35°29' E 139°39'0 0.0
2016-Apr-23 07:31N 35°29' E 139°39'0 0.0
2016-Apr-23 06:31N 35°29' E 139°39'0 0.0
2016-Apr-23 05:31N 35°29' E 139°39'0 0.0
2016-Apr-23 04:31N 35°29' E 139°39'0 0.0
2016-Apr-23 03:31N 35°29' E 139°39'0 0.0
2016-Apr-23 02:31N 35°29' E 139°39'0 0.0
2016-Apr-23 01:31N 35°29' E 139°39'0 0.0
2016-Apr-23 00:31N 35°29' E 139°39'0 0.0
2016-Apr-22 23:31N 35°29' E 139°39'0 0.0
2016-Apr-22 22:31N 35°29' E 139°39'0 0.0
2016-Apr-22 21:31N 35°29' E 139°39'0 0.0
2016-Apr-22 20:31N 35°29' E 139°39'0 0.0
2016-Apr-22 19:31N 35°29' E 139°39'0 0.0
2016-Apr-22 18:31N 35°29' E 139°39'0 0.0
2016-Apr-22 17:31N 35°29' E 139°39'0 0.0
2016-Apr-22 16:31N 35°29' E 139°39'0 0.0
2016-Apr-22 15:31N 35°29' E 139°39'0 0.0
2016-Apr-22 14:31N 35°29' E 139°39'0 0.0
2016-Apr-22 13:31N 35°29' E 139°39'0 0.0
2016-Apr-22 12:31N 35°29' E 139°39'0 0.0
2016-Apr-22 11:31N 35°29' E 139°39'0 0.0
2016-Apr-22 10:31N 35°29' E 139°39'0 0.0
2016-Apr-22 09:31N 35°29' E 139°39'0 0.0
2016-Apr-22 08:31N 35°29' E 139°39'0 0.0
2016-Apr-22 07:31N 35°29' E 139°39'0 0.0
2016-Apr-22 06:31N 35°29' E 139°39'0 0.0
2016-Apr-22 05:31N 35°29' E 139°39'0 0.0
2016-Apr-22 04:31N 35°29' E 139°39'  

Dump ship's entire track history